sensor_id;sensor_type;location;lat;lon;timestamp;P1;P2;P0
73623;PMS5003;61921;53.226;-1.296;2023-01-16T00:00:33;43;39;
73623;PMS5003;61921;53.226;-1.296;2023-01-16T00:02:58;31;29;
73623;PMS5003;61921;53.226;-1.296;2023-01-16T00:05:23;36;34;
73623;PMS5003;61921;53.226;-1.296;2023-01-16T00:07:49;35;33;
73623;PMS5003;61921;53.226;-1.296;2023-01-16T00:10:14;30;28;
73623;PMS5003;61921;53.226;-1.296;2023-01-16T00:12:40;28;27;
73623;PMS5003;61921;53.226;-1.296;2023-01-16T00:15:05;35;31;
73623;PMS5003;61921;53.226;-1.296;2023-01-16T00:17:30;38;33;
73623;PMS5003;61921;53.226;-1.296;2023-01-16T00:19:56;32;30;
73623;PMS5003;61921;53.226;-1.296;2023-01-16T00:22:20;35;34;
73623;PMS5003;61921;53.226;-1.296;2023-01-16T00:24:46;39;35;
73623;PMS5003;61921;53.226;-1.296;2023-01-16T00:27:11;46;38;
73623;PMS5003;61921;53.226;-1.296;2023-01-16T00:29:37;42;39;
73623;PMS5003;61921;53.226;-1.296;2023-01-16T00:32:02;49;46;
73623;PMS5003;61921;53.226;-1.296;2023-01-16T00:34:27;60;54;
73623;PMS5003;61921;53.226;-1.296;2023-01-16T00:36:53;44;44;
73623;PMS5003;61921;53.226;-1.296;2023-01-16T00:39:18;58;52;
73623;PMS5003;61921;53.226;-1.296;2023-01-16T00:41:43;52;46;
73623;PMS5003;61921;53.226;-1.296;2023-01-16T00:44:09;50;42;
73623;PMS5003;61921;53.226;-1.296;2023-01-16T00:46:34;43;42;
73623;PMS5003;61921;53.226;-1.296;2023-01-16T00:48:59;55;46;
73623;PMS5003;61921;53.226;-1.296;2023-01-16T00:51:25;46;44;
73623;PMS5003;61921;53.226;-1.296;2023-01-16T00:53:50;44;42;
73623;PMS5003;61921;53.226;-1.296;2023-01-16T00:56:16;45;41;
73623;PMS5003;61921;53.226;-1.296;2023-01-16T00:58:41;45;41;
73623;PMS5003;61921;53.226;-1.296;2023-01-16T01:01:06;48;40;
73623;PMS5003;61921;53.226;-1.296;2023-01-16T01:03:32;45;37;
73623;PMS5003;61921;53.226;-1.296;2023-01-16T01:05:57;39;35;
73623;PMS5003;61921;53.226;-1.296;2023-01-16T01:08:23;39;34;
73623;PMS5003;61921;53.226;-1.296;2023-01-16T01:10:48;41;38;
73623;PMS5003;61921;53.226;-1.296;2023-01-16T01:13:14;38;36;
73623;PMS5003;61921;53.226;-1.296;2023-01-16T01:15:39;43;34;
73623;PMS5003;61921;53.226;-1.296;2023-01-16T01:18:04;45;42;
73623;PMS5003;61921;53.226;-1.296;2023-01-16T01:20:29;44;38;
73623;PMS5003;61921;53.226;-1.296;2023-01-16T01:22:55;41;37;
73623;PMS5003;61921;53.226;-1.296;2023-01-16T01:25:21;42;37;
73623;PMS5003;61921;53.226;-1.296;2023-01-16T01:27:47;43;42;
73623;PMS5003;61921;53.226;-1.296;2023-01-16T01:30:12;55;52;
73623;PMS5003;61921;53.226;-1.296;2023-01-16T01:32:37;43;40;
73623;PMS5003;61921;53.226;-1.296;2023-01-16T01:35:04;50;45;
73623;PMS5003;61921;53.226;-1.296;2023-01-16T01:37:28;55;46;
73623;PMS5003;61921;53.226;-1.296;2023-01-16T01:39:53;46;41;
73623;PMS5003;61921;53.226;-1.296;2023-01-16T01:42:19;41;40;
73623;PMS5003;61921;53.226;-1.296;2023-01-16T01:44:48;51;43;
73623;PMS5003;61921;53.226;-1.296;2023-01-16T01:47:09;44;40;
73623;PMS5003;61921;53.226;-1.296;2023-01-16T01:49:35;41;35;
73623;PMS5003;61921;53.226;-1.296;2023-01-16T01:52:00;32;30;
73623;PMS5003;61921;53.226;-1.296;2023-01-16T01:54:26;32;30;
73623;PMS5003;61921;53.226;-1.296;2023-01-16T01:56:51;37;27;
73623;PMS5003;61921;53.226;-1.296;2023-01-16T01:59:17;29;27;
73623;PMS5003;61921;53.226;-1.296;2023-01-16T02:01:42;29;29;
73623;PMS5003;61921;53.226;-1.296;2023-01-16T02:04:08;29;29;
73623;PMS5003;61921;53.226;-1.296;2023-01-16T02:06:34;30;29;
73623;PMS5003;61921;53.226;-1.296;2023-01-16T02:08:57;30;28;
73623;PMS5003;61921;53.226;-1.296;2023-01-16T02:11:24;32;27;
73623;PMS5003;61921;53.226;-1.296;2023-01-16T02:13:48;34;34;
73623;PMS5003;61921;53.226;-1.296;2023-01-16T02:16:14;50;46;
73623;PMS5003;61921;53.226;-1.296;2023-01-16T02:18:40;56;52;
73623;PMS5003;61921;53.226;-1.296;2023-01-16T02:21:08;59;54;
73623;PMS5003;61921;53.226;-1.296;2023-01-16T02:23:40;54;51;
73623;PMS5003;61921;53.226;-1.296;2023-01-16T02:26:03;48;46;
73623;PMS5003;61921;53.226;-1.296;2023-01-16T02:28:28;47;42;
73623;PMS5003;61921;53.226;-1.296;2023-01-16T02:33:13;53;50;
73623;PMS5003;61921;53.226;-1.296;2023-01-16T02:35:41;50;48;
73623;PMS5003;61921;53.226;-1.296;2023-01-16T02:38:05;55;50;
73623;PMS5003;61921;53.226;-1.296;2023-01-16T02:40:33;56;51;
73623;PMS5003;61921;53.226;-1.296;2023-01-16T02:42:57;61;54;
73623;PMS5003;61921;53.226;-1.296;2023-01-16T02:45:21;41;37;
73623;PMS5003;61921;53.226;-1.296;2023-01-16T02:47:45;41;41;
73623;PMS5003;61921;53.226;-1.296;2023-01-16T02:50:11;49;46;
73623;PMS5003;61921;53.226;-1.296;2023-01-16T02:52:36;44;42;
73623;PMS5003;61921;53.226;-1.296;2023-01-16T02:55:01;52;49;
73623;PMS5003;61921;53.226;-1.296;2023-01-16T02:57:27;47;47;
73623;PMS5003;61921;53.226;-1.296;2023-01-16T02:59:51;55;51;
73623;PMS5003;61921;53.226;-1.296;2023-01-16T03:02:16;57;52;
73623;PMS5003;61921;53.226;-1.296;2023-01-16T03:04:45;57;51;
73623;PMS5003;61921;53.226;-1.296;2023-01-16T03:07:10;58;53;
73623;PMS5003;61921;53.226;-1.296;2023-01-16T03:09:34;60;56;
73623;PMS5003;61921;53.226;-1.296;2023-01-16T03:12:02;56;55;
73623;PMS5003;61921;53.226;-1.296;2023-01-16T03:14:27;56;51;
73623;PMS5003;61921;53.226;-1.296;2023-01-16T03:16:52;59;52;
73623;PMS5003;61921;53.226;-1.296;2023-01-16T03:19:17;59;49;
73623;PMS5003;61921;53.226;-1.296;2023-01-16T03:21:41;60;52;
73623;PMS5003;61921;53.226;-1.296;2023-01-16T03:24:06;58;54;
73623;PMS5003;61921;53.226;-1.296;2023-01-16T03:26:31;53;48;
73623;PMS5003;61921;53.226;-1.296;2023-01-16T03:28:59;59;55;
73623;PMS5003;61921;53.226;-1.296;2023-01-16T03:31:24;50;48;
73623;PMS5003;61921;53.226;-1.296;2023-01-16T03:33:47;56;52;
73623;PMS5003;61921;53.226;-1.296;2023-01-16T03:36:13;55;53;
73623;PMS5003;61921;53.226;-1.296;2023-01-16T03:38:37;49;47;
73623;PMS5003;61921;53.226;-1.296;2023-01-16T03:41:02;50;47;
73623;PMS5003;61921;53.226;-1.296;2023-01-16T03:43:28;59;54;
73623;PMS5003;61921;53.226;-1.296;2023-01-16T03:45:54;56;48;
73623;PMS5003;61921;53.226;-1.296;2023-01-16T03:48:18;62;56;
73623;PMS5003;61921;53.226;-1.296;2023-01-16T03:50:44;64;58;
73623;PMS5003;61921;53.226;-1.296;2023-01-16T03:53:10;74;60;
73623;PMS5003;61921;53.226;-1.296;2023-01-16T03:55:37;74;66;
73623;PMS5003;61921;53.226;-1.296;2023-01-16T03:58:02;71;65;
73623;PMS5003;61921;53.226;-1.296;2023-01-16T04:00:26;73;71;
73623;PMS5003;61921;53.226;-1.296;2023-01-16T04:02:52;74;67;
73623;PMS5003;61921;53.226;-1.296;2023-01-16T04:05:17;73;62;
73623;PMS5003;61921;53.226;-1.296;2023-01-16T04:07:42;65;61;
73623;PMS5003;61921;53.226;-1.296;2023-01-16T04:10:09;69;66;
73623;PMS5003;61921;53.226;-1.296;2023-01-16T04:12:33;67;65;
73623;PMS5003;61921;53.226;-1.296;2023-01-16T04:14:59;72;61;
73623;PMS5003;61921;53.226;-1.296;2023-01-16T04:17:23;85;72;
73623;PMS5003;61921;53.226;-1.296;2023-01-16T04:19:49;74;64;
73623;PMS5003;61921;53.226;-1.296;2023-01-16T04:22:18;74;66;
73623;PMS5003;61921;53.226;-1.296;2023-01-16T04:24:39;80;71;
73623;PMS5003;61921;53.226;-1.296;2023-01-16T04:27:04;77;65;
73623;PMS5003;61921;53.226;-1.296;2023-01-16T04:29:29;73;64;
73623;PMS5003;61921;53.226;-1.296;2023-01-16T04:31:55;89;75;
73623;PMS5003;61921;53.226;-1.296;2023-01-16T04:34:20;68;64;
73623;PMS5003;61921;53.226;-1.296;2023-01-16T04:36:46;80;73;
73623;PMS5003;61921;53.226;-1.296;2023-01-16T04:39:11;83;68;
73623;PMS5003;61921;53.226;-1.296;2023-01-16T04:41:37;77;66;
73623;PMS5003;61921;53.226;-1.296;2023-01-16T04:44:02;76;68;
73623;PMS5003;61921;53.226;-1.296;2023-01-16T04:46:28;86;75;
73623;PMS5003;61921;53.226;-1.296;2023-01-16T04:48:53;78;68;
73623;PMS5003;61921;53.226;-1.296;2023-01-16T04:51:19;76;66;
73623;PMS5003;61921;53.226;-1.296;2023-01-16T04:53:44;83;74;
73623;PMS5003;61921;53.226;-1.296;2023-01-16T04:56:09;96;83;
73623;PMS5003;61921;53.226;-1.296;2023-01-16T04:58:35;87;79;
73623;PMS5003;61921;53.226;-1.296;2023-01-16T05:01:01;94;85;
73623;PMS5003;61921;53.226;-1.296;2023-01-16T05:03:26;89;74;
73623;PMS5003;61921;53.226;-1.296;2023-01-16T05:05:52;90;78;
73623;PMS5003;61921;53.226;-1.296;2023-01-16T05:08:18;88;81;
73623;PMS5003;61921;53.226;-1.296;2023-01-16T05:10:43;100;80;
73623;PMS5003;61921;53.226;-1.296;2023-01-16T05:13:09;101;88;
73623;PMS5003;61921;53.226;-1.296;2023-01-16T05:15:34;92;81;
73623;PMS5003;61921;53.226;-1.296;2023-01-16T05:18:00;90;84;
73623;PMS5003;61921;53.226;-1.296;2023-01-16T05:20:25;97;86;
73623;PMS5003;61921;53.226;-1.296;2023-01-16T05:22:51;101;85;
73623;PMS5003;61921;53.226;-1.296;2023-01-16T05:25:16;103;88;
73623;PMS5003;61921;53.226;-1.296;2023-01-16T05:27:41;87;79;
73623;PMS5003;61921;53.226;-1.296;2023-01-16T05:30:07;96;80;
73623;PMS5003;61921;53.226;-1.296;2023-01-16T05:32:33;89;84;
73623;PMS5003;61921;53.226;-1.296;2023-01-16T05:34:58;85;73;
73623;PMS5003;61921;53.226;-1.296;2023-01-16T05:37:24;87;77;
73623;PMS5003;61921;53.226;-1.296;2023-01-16T05:39:49;93;77;
73623;PMS5003;61921;53.226;-1.296;2023-01-16T05:42:14;78;70;
73623;PMS5003;61921;53.226;-1.296;2023-01-16T05:44:40;82;76;
73623;PMS5003;61921;53.226;-1.296;2023-01-16T05:47:05;89;76;
73623;PMS5003;61921;53.226;-1.296;2023-01-16T05:49:30;88;74;
73623;PMS5003;61921;53.226;-1.296;2023-01-16T05:51:56;88;78;
73623;PMS5003;61921;53.226;-1.296;2023-01-16T05:54:22;78;69;
73623;PMS5003;61921;53.226;-1.296;2023-01-16T05:56:48;86;73;
73623;PMS5003;61921;53.226;-1.296;2023-01-16T05:59:13;82;70;
73623;PMS5003;61921;53.226;-1.296;2023-01-16T06:01:39;76;68;
73623;PMS5003;61921;53.226;-1.296;2023-01-16T06:04:04;68;63;
73623;PMS5003;61921;53.226;-1.296;2023-01-16T06:06:30;80;68;
73623;PMS5003;61921;53.226;-1.296;2023-01-16T06:08:56;66;59;
73623;PMS5003;61921;53.226;-1.296;2023-01-16T06:11:21;72;62;
73623;PMS5003;61921;53.226;-1.296;2023-01-16T06:13:47;81;67;
73623;PMS5003;61921;53.226;-1.296;2023-01-16T06:16:13;70;59;
73623;PMS5003;61921;53.226;-1.296;2023-01-16T06:18:38;64;58;
73623;PMS5003;61921;53.226;-1.296;2023-01-16T06:21:03;67;62;
73623;PMS5003;61921;53.226;-1.296;2023-01-16T06:23:29;71;64;
73623;PMS5003;61921;53.226;-1.296;2023-01-16T06:25:54;73;62;
73623;PMS5003;61921;53.226;-1.296;2023-01-16T06:28:19;63;56;
73623;PMS5003;61921;53.226;-1.296;2023-01-16T06:30:50;66;62;
73623;PMS5003;61921;53.226;-1.296;2023-01-16T06:33:10;67;58;
73623;PMS5003;61921;53.226;-1.296;2023-01-16T06:35:36;58;53;
73623;PMS5003;61921;53.226;-1.296;2023-01-16T06:38:02;55;49;
73623;PMS5003;61921;53.226;-1.296;2023-01-16T06:40:27;62;58;
73623;PMS5003;61921;53.226;-1.296;2023-01-16T06:42:53;62;51;
73623;PMS5003;61921;53.226;-1.296;2023-01-16T06:45:18;69;55;
73623;PMS5003;61921;53.226;-1.296;2023-01-16T06:47:43;56;49;
73623;PMS5003;61921;53.226;-1.296;2023-01-16T06:50:09;62;54;
73623;PMS5003;61921;53.226;-1.296;2023-01-16T06:52:34;53;48;
73623;PMS5003;61921;53.226;-1.296;2023-01-16T06:55:00;56;51;
73623;PMS5003;61921;53.226;-1.296;2023-01-16T06:57:24;56;50;
73623;PMS5003;61921;53.226;-1.296;2023-01-16T06:59:50;52;48;
73623;PMS5003;61921;53.226;-1.296;2023-01-16T07:02:15;48;46;
73623;PMS5003;61921;53.226;-1.296;2023-01-16T07:04:41;62;57;
73623;PMS5003;61921;53.226;-1.296;2023-01-16T07:07:07;55;49;
73623;PMS5003;61921;53.226;-1.296;2023-01-16T07:09:33;52;43;
73623;PMS5003;61921;53.226;-1.296;2023-01-16T07:11:58;45;41;
73623;PMS5003;61921;53.226;-1.296;2023-01-16T07:14:23;48;42;
73623;PMS5003;61921;53.226;-1.296;2023-01-16T07:16:48;49;48;
73623;PMS5003;61921;53.226;-1.296;2023-01-16T07:19:14;47;38;
73623;PMS5003;61921;53.226;-1.296;2023-01-16T07:21:40;49;45;
73623;PMS5003;61921;53.226;-1.296;2023-01-16T07:24:05;50;40;
73623;PMS5003;61921;53.226;-1.296;2023-01-16T07:26:30;53;45;
73623;PMS5003;61921;53.226;-1.296;2023-01-16T07:28:55;50;41;
73623;PMS5003;61921;53.226;-1.296;2023-01-16T07:31:21;54;45;
73623;PMS5003;61921;53.226;-1.296;2023-01-16T07:33:47;46;44;
73623;PMS5003;61921;53.226;-1.296;2023-01-16T07:36:11;49;44;
73623;PMS5003;61921;53.226;-1.296;2023-01-16T07:38:37;44;39;
73623;PMS5003;61921;53.226;-1.296;2023-01-16T07:41:02;47;39;
73623;PMS5003;61921;53.226;-1.296;2023-01-16T07:43:27;51;41;
73623;PMS5003;61921;53.226;-1.296;2023-01-16T07:45:52;46;38;
73623;PMS5003;61921;53.226;-1.296;2023-01-16T07:48:18;42;37;
73623;PMS5003;61921;53.226;-1.296;2023-01-16T07:50:49;41;37;
73623;PMS5003;61921;53.226;-1.296;2023-01-16T07:53:09;46;36;
73623;PMS5003;61921;53.226;-1.296;2023-01-16T07:55:35;34;28;
73623;PMS5003;61921;53.226;-1.296;2023-01-16T07:58:01;38;30;
73623;PMS5003;61921;53.226;-1.296;2023-01-16T08:00:26;35;28;
73623;PMS5003;61921;53.226;-1.296;2023-01-16T08:02:51;34;31;
73623;PMS5003;61921;53.226;-1.296;2023-01-16T08:05:17;36;34;
73623;PMS5003;61921;53.226;-1.296;2023-01-16T08:07:43;34;30;
73623;PMS5003;61921;53.226;-1.296;2023-01-16T08:10:09;39;32;
73623;PMS5003;61921;53.226;-1.296;2023-01-16T08:12:34;37;32;
73623;PMS5003;61921;53.226;-1.296;2023-01-16T08:15:00;40;34;
73623;PMS5003;61921;53.226;-1.296;2023-01-16T08:17:25;30;25;
73623;PMS5003;61921;53.226;-1.296;2023-01-16T08:19:50;32;30;
73623;PMS5003;61921;53.226;-1.296;2023-01-16T08:22:16;34;26;
73623;PMS5003;61921;53.226;-1.296;2023-01-16T08:24:41;38;32;
73623;PMS5003;61921;53.226;-1.296;2023-01-16T08:27:07;31;28;
73623;PMS5003;61921;53.226;-1.296;2023-01-16T08:29:33;28;25;
73623;PMS5003;61921;53.226;-1.296;2023-01-16T08:31:58;19;18;
73623;PMS5003;61921;53.226;-1.296;2023-01-16T08:34:23;33;25;
73623;PMS5003;61921;53.226;-1.296;2023-01-16T08:36:49;20;20;
73623;PMS5003;61921;53.226;-1.296;2023-01-16T08:39:15;24;20;
73623;PMS5003;61921;53.226;-1.296;2023-01-16T08:41:40;25;19;
73623;PMS5003;61921;53.226;-1.296;2023-01-16T08:44:06;19;17;
73623;PMS5003;61921;53.226;-1.296;2023-01-16T08:46:31;23;17;
73623;PMS5003;61921;53.226;-1.296;2023-01-16T08:48:57;20;17;
73623;PMS5003;61921;53.226;-1.296;2023-01-16T08:51:22;19;17;
73623;PMS5003;61921;53.226;-1.296;2023-01-16T08:53:48;16;15;
73623;PMS5003;61921;53.226;-1.296;2023-01-16T08:56:13;17;15;
73623;PMS5003;61921;53.226;-1.296;2023-01-16T08:58:38;16;12;
73623;PMS5003;61921;53.226;-1.296;2023-01-16T09:01:04;13;11;
73623;PMS5003;61921;53.226;-1.296;2023-01-16T09:03:29;12;12;
73623;PMS5003;61921;53.226;-1.296;2023-01-16T09:05:54;25;20;
73623;PMS5003;61921;53.226;-1.296;2023-01-16T09:08:20;21;18;
73623;PMS5003;61921;53.226;-1.296;2023-01-16T09:10:46;19;17;
73623;PMS5003;61921;53.226;-1.296;2023-01-16T09:13:11;18;15;
73623;PMS5003;61921;53.226;-1.296;2023-01-16T09:15:37;18;15;
73623;PMS5003;61921;53.226;-1.296;2023-01-16T09:18:02;18;18;
73623;PMS5003;61921;53.226;-1.296;2023-01-16T09:20:27;18;16;
73623;PMS5003;61921;53.226;-1.296;2023-01-16T09:22:56;17;13;
73623;PMS5003;61921;53.226;-1.296;2023-01-16T09:25:18;12;12;
73623;PMS5003;61921;53.226;-1.296;2023-01-16T09:27:43;16;16;
73623;PMS5003;61921;53.226;-1.296;2023-01-16T09:30:09;16;16;
73623;PMS5003;61921;53.226;-1.296;2023-01-16T09:32:35;18;15;
73623;PMS5003;61921;53.226;-1.296;2023-01-16T09:35:00;18;13;
73623;PMS5003;61921;53.226;-1.296;2023-01-16T09:37:26;11;11;
73623;PMS5003;61921;53.226;-1.296;2023-01-16T09:39:51;12;12;
73623;PMS5003;61921;53.226;-1.296;2023-01-16T09:44:42;16;13;
73623;PMS5003;61921;53.226;-1.296;2023-01-16T09:47:08;15;13;
73623;PMS5003;61921;53.226;-1.296;2023-01-16T09:49:35;16;15;
73623;PMS5003;61921;53.226;-1.296;2023-01-16T09:51:59;16;15;
73623;PMS5003;61921;53.226;-1.296;2023-01-16T09:54:24;12;12;
73623;PMS5003;61921;53.226;-1.296;2023-01-16T09:56:50;16;14;
73623;PMS5003;61921;53.226;-1.296;2023-01-16T09:59:19;16;12;
73623;PMS5003;61921;53.226;-1.296;2023-01-16T10:01:42;14;13;
73623;PMS5003;61921;53.226;-1.296;2023-01-16T10:04:11;12;12;
73623;PMS5003;61921;53.226;-1.296;2023-01-16T10:06:33;19;16;
73623;PMS5003;61921;53.226;-1.296;2023-01-16T10:09:00;13;11;
73623;PMS5003;61921;53.226;-1.296;2023-01-16T10:11:23;10;10;
73623;PMS5003;61921;53.226;-1.296;2023-01-16T10:13:57;17;16;
73623;PMS5003;61921;53.226;-1.296;2023-01-16T10:16:15;19;16;
73623;PMS5003;61921;53.226;-1.296;2023-01-16T10:18:40;18;16;
73623;PMS5003;61921;53.226;-1.296;2023-01-16T10:21:09;17;12;
73623;PMS5003;61921;53.226;-1.296;2023-01-16T10:23:33;13;13;
73623;PMS5003;61921;53.226;-1.296;2023-01-16T10:25:57;21;17;
73623;PMS5003;61921;53.226;-1.296;2023-01-16T10:28:25;17;16;
73623;PMS5003;61921;53.226;-1.296;2023-01-16T10:30:47;17;13;
73623;PMS5003;61921;53.226;-1.296;2023-01-16T10:33:13;18;14;
73623;PMS5003;61921;53.226;-1.296;2023-01-16T10:35:39;16;14;
73623;PMS5003;61921;53.226;-1.296;2023-01-16T10:38:09;17;15;
73623;PMS5003;61921;53.226;-1.296;2023-01-16T10:40:29;13;13;
73623;PMS5003;61921;53.226;-1.296;2023-01-16T10:42:56;18;16;
73623;PMS5003;61921;53.226;-1.296;2023-01-16T10:45:21;13;12;
73623;PMS5003;61921;53.226;-1.296;2023-01-16T10:47:45;19;16;
73623;PMS5003;61921;53.226;-1.296;2023-01-16T10:50:10;14;12;
73623;PMS5003;61921;53.226;-1.296;2023-01-16T10:52:36;15;13;
73623;PMS5003;61921;53.226;-1.296;2023-01-16T10:55:01;16;16;
73623;PMS5003;61921;53.226;-1.296;2023-01-16T10:57:27;16;15;
73623;PMS5003;61921;53.226;-1.296;2023-01-16T10:59:54;18;18;
73623;PMS5003;61921;53.226;-1.296;2023-01-16T11:02:19;13;13;
73623;PMS5003;61921;53.226;-1.296;2023-01-16T11:04:43;20;19;
73623;PMS5003;61921;53.226;-1.296;2023-01-16T11:07:13;20;18;
73623;PMS5003;61921;53.226;-1.296;2023-01-16T11:09:35;17;15;
73623;PMS5003;61921;53.226;-1.296;2023-01-16T11:12:01;21;19;
73623;PMS5003;61921;53.226;-1.296;2023-01-16T11:14:26;23;23;
73623;PMS5003;61921;53.226;-1.296;2023-01-16T11:16:51;19;19;
73623;PMS5003;61921;53.226;-1.296;2023-01-16T11:19:17;20;20;
73623;PMS5003;61921;53.226;-1.296;2023-01-16T11:21:42;17;17;
73623;PMS5003;61921;53.226;-1.296;2023-01-16T11:24:10;16;16;
73623;PMS5003;61921;53.226;-1.296;2023-01-16T11:26:33;16;14;
73623;PMS5003;61921;53.226;-1.296;2023-01-16T11:28:59;8;8;
73623;PMS5003;61921;53.226;-1.296;2023-01-16T11:31:25;9;8;
73623;PMS5003;61921;53.226;-1.296;2023-01-16T11:33:51;8;8;
73623;PMS5003;61921;53.226;-1.296;2023-01-16T11:36:16;11;10;
73623;PMS5003;61921;53.226;-1.296;2023-01-16T11:38:43;11;10;
73623;PMS5003;61921;53.226;-1.296;2023-01-16T11:41:07;11;10;
73623;PMS5003;61921;53.226;-1.296;2023-01-16T11:43:33;11;10;
73623;PMS5003;61921;53.226;-1.296;2023-01-16T11:45:58;5;5;
73623;PMS5003;61921;53.226;-1.296;2023-01-16T11:48:24;8;5;
73623;PMS5003;61921;53.226;-1.296;2023-01-16T11:50:50;10;8;
73623;PMS5003;61921;53.226;-1.296;2023-01-16T11:53:15;7;5;
73623;PMS5003;61921;53.226;-1.296;2023-01-16T11:55:43;5;5;
73623;PMS5003;61921;53.226;-1.296;2023-01-16T11:58:08;7;5;
73623;PMS5003;61921;53.226;-1.296;2023-01-16T12:00:40;5;5;
73623;PMS5003;61921;53.226;-1.296;2023-01-16T12:03:02;4;4;
73623;PMS5003;61921;53.226;-1.296;2023-01-16T12:05:26;4;3;
73623;PMS5003;61921;53.226;-1.296;2023-01-16T12:07:54;3;3;
73623;PMS5003;61921;53.226;-1.296;2023-01-16T12:10:19;3;3;
73623;PMS5003;61921;53.226;-1.296;2023-01-16T12:12:42;3;3;
73623;PMS5003;61921;53.226;-1.296;2023-01-16T12:15:08;5;4;
73623;PMS5003;61921;53.226;-1.296;2023-01-16T12:17:41;5;5;
73623;PMS5003;61921;53.226;-1.296;2023-01-16T12:20:02;9;5;
73623;PMS5003;61921;53.226;-1.296;2023-01-16T12:22:26;8;7;
73623;PMS5003;61921;53.226;-1.296;2023-01-16T12:24:51;10;9;
73623;PMS5003;61921;53.226;-1.296;2023-01-16T12:27:29;12;8;
73623;PMS5003;61921;53.226;-1.296;2023-01-16T12:29:45;13;13;
73623;PMS5003;61921;53.226;-1.296;2023-01-16T12:32:13;14;14;
73623;PMS5003;61921;53.226;-1.296;2023-01-16T12:34:37;15;11;
73623;PMS5003;61921;53.226;-1.296;2023-01-16T12:37:02;10;10;
73623;PMS5003;61921;53.226;-1.296;2023-01-16T12:39:26;9;9;
73623;PMS5003;61921;53.226;-1.296;2023-01-16T12:41:51;8;8;
73623;PMS5003;61921;53.226;-1.296;2023-01-16T12:44:21;5;5;
73623;PMS5003;61921;53.226;-1.296;2023-01-16T12:46:43;5;5;
73623;PMS5003;61921;53.226;-1.296;2023-01-16T12:49:16;4;4;
73623;PMS5003;61921;53.226;-1.296;2023-01-16T12:51:35;3;3;
73623;PMS5003;61921;53.226;-1.296;2023-01-16T12:54:05;3;3;
73623;PMS5003;61921;53.226;-1.296;2023-01-16T12:56:28;2;2;
73623;PMS5003;61921;53.226;-1.296;2023-01-16T12:58:51;3;3;
73623;PMS5003;61921;53.226;-1.296;2023-01-16T13:01:17;3;2;
73623;PMS5003;61921;53.226;-1.296;2023-01-16T13:03:43;2;2;
73623;PMS5003;61921;53.226;-1.296;2023-01-16T13:06:09;3;3;
73623;PMS5003;61921;53.226;-1.296;2023-01-16T13:08:33;5;4;
73623;PMS5003;61921;53.226;-1.296;2023-01-16T13:10:59;4;3;
73623;PMS5003;61921;53.226;-1.296;2023-01-16T13:13:25;5;4;
73623;PMS5003;61921;53.226;-1.296;2023-01-16T13:15:52;7;5;
73623;PMS5003;61921;53.226;-1.296;2023-01-16T13:18:17;7;5;
73623;PMS5003;61921;53.226;-1.296;2023-01-16T13:20:41;5;4;
73623;PMS5003;61921;53.226;-1.296;2023-01-16T13:23:11;7;5;
73623;PMS5003;61921;53.226;-1.296;2023-01-16T13:25:34;4;3;
73623;PMS5003;61921;53.226;-1.296;2023-01-16T13:27:59;3;3;
73623;PMS5003;61921;53.226;-1.296;2023-01-16T13:30:24;3;3;
73623;PMS5003;61921;53.226;-1.296;2023-01-16T13:32:51;5;5;
73623;PMS5003;61921;53.226;-1.296;2023-01-16T13:35:17;3;3;
73623;PMS5003;61921;53.226;-1.296;2023-01-16T13:37:47;4;4;
73623;PMS5003;61921;53.226;-1.296;2023-01-16T13:40:09;2;2;
73623;PMS5003;61921;53.226;-1.296;2023-01-16T13:42:33;2;2;
73623;PMS5003;61921;53.226;-1.296;2023-01-16T13:44:59;2;2;
73623;PMS5003;61921;53.226;-1.296;2023-01-16T13:47:25;4;3;
73623;PMS5003;61921;53.226;-1.296;2023-01-16T13:49:51;1;1;
73623;PMS5003;61921;53.226;-1.296;2023-01-16T13:52:16;1;1;
73623;PMS5003;61921;53.226;-1.296;2023-01-16T13:54:42;3;2;
73623;PMS5003;61921;53.226;-1.296;2023-01-16T13:57:08;2;2;
73623;PMS5003;61921;53.226;-1.296;2023-01-16T13:59:38;2;2;
73623;PMS5003;61921;53.226;-1.296;2023-01-16T14:01:59;2;1;
73623;PMS5003;61921;53.226;-1.296;2023-01-16T14:04:26;2;2;
73623;PMS5003;61921;53.226;-1.296;2023-01-16T14:06:50;1;1;
73623;PMS5003;61921;53.226;-1.296;2023-01-16T14:09:19;2;2;
73623;PMS5003;61921;53.226;-1.296;2023-01-16T14:16:35;1;1;
73623;PMS5003;61921;53.226;-1.296;2023-01-16T14:18:59;2;2;
73623;PMS5003;61921;53.226;-1.296;2023-01-16T14:21:25;0;0;
73623;PMS5003;61921;53.226;-1.296;2023-01-16T14:23:50;1;1;
73623;PMS5003;61921;53.226;-1.296;2023-01-16T14:26:17;0;0;
73623;PMS5003;61921;53.226;-1.296;2023-01-16T14:28:42;1;1;
73623;PMS5003;61921;53.226;-1.296;2023-01-16T14:33:33;0;0;
73623;PMS5003;61921;53.226;-1.296;2023-01-16T14:35:59;0;0;
73623;PMS5003;61921;53.226;-1.296;2023-01-16T14:38:25;1;1;
73623;PMS5003;61921;53.226;-1.296;2023-01-16T14:40:51;2;1;
73623;PMS5003;61921;53.226;-1.296;2023-01-16T14:43:17;1;1;
73623;PMS5003;61921;53.226;-1.296;2023-01-16T14:45:42;2;2;
73623;PMS5003;61921;53.226;-1.296;2023-01-16T14:48:11;0;0;
73623;PMS5003;61921;53.226;-1.296;2023-01-16T14:50:41;2;2;
73623;PMS5003;61921;53.226;-1.296;2023-01-16T14:53:04;1;1;
73623;PMS5003;61921;53.226;-1.296;2023-01-16T14:55:24;3;2;
73623;PMS5003;61921;53.226;-1.296;2023-01-16T14:57:50;2;2;
73623;PMS5003;61921;53.226;-1.296;2023-01-16T15:00:16;2;1;
73623;PMS5003;61921;53.226;-1.296;2023-01-16T15:02:43;2;2;
73623;PMS5003;61921;53.226;-1.296;2023-01-16T15:05:07;1;1;
73623;PMS5003;61921;53.226;-1.296;2023-01-16T15:07:35;3;2;
73623;PMS5003;61921;53.226;-1.296;2023-01-16T15:09:59;2;1;
73623;PMS5003;61921;53.226;-1.296;2023-01-16T15:12:25;2;2;
73623;PMS5003;61921;53.226;-1.296;2023-01-16T15:14:51;1;1;
73623;PMS5003;61921;53.226;-1.296;2023-01-16T15:17:16;2;2;
73623;PMS5003;61921;53.226;-1.296;2023-01-16T15:22:13;2;2;
73623;PMS5003;61921;53.226;-1.296;2023-01-16T15:24:31;3;3;
73623;PMS5003;61921;53.226;-1.296;2023-01-16T15:26:58;1;1;
73623;PMS5003;61921;53.226;-1.296;2023-01-16T15:29:26;1;1;
73623;PMS5003;61921;53.226;-1.296;2023-01-16T15:31:53;2;1;
73623;PMS5003;61921;53.226;-1.296;2023-01-16T15:34:19;1;1;
73623;PMS5003;61921;53.226;-1.296;2023-01-16T15:36:41;1;1;
73623;PMS5003;61921;53.226;-1.296;2023-01-16T15:41:32;1;1;
73623;PMS5003;61921;53.226;-1.296;2023-01-16T15:43:57;0;0;
73623;PMS5003;61921;53.226;-1.296;2023-01-16T15:46:24;0;0;
73623;PMS5003;61921;53.226;-1.296;2023-01-16T15:48:50;0;0;
73623;PMS5003;61921;53.226;-1.296;2023-01-16T15:51:15;1;1;
73623;PMS5003;61921;53.226;-1.296;2023-01-16T15:53:41;1;1;
73623;PMS5003;61921;53.226;-1.296;2023-01-16T15:56:08;2;1;
73623;PMS5003;61921;53.226;-1.296;2023-01-16T15:58:32;3;1;
73623;PMS5003;61921;53.226;-1.296;2023-01-16T16:00:58;1;1;
73623;PMS5003;61921;53.226;-1.296;2023-01-16T16:03:24;2;2;
73623;PMS5003;61921;53.226;-1.296;2023-01-16T16:05:49;1;1;
73623;PMS5003;61921;53.226;-1.296;2023-01-16T16:08:16;2;2;
73623;PMS5003;61921;53.226;-1.296;2023-01-16T16:10:41;1;1;
73623;PMS5003;61921;53.226;-1.296;2023-01-16T16:13:06;4;3;